Time;durP1;ratioP1;P1;durP2;ratioP2;P2;SDS_P1;SDS_P2;PMS_P1;PMS_P2;Temp;Humidity;BMP_temperature;BMP_pressure;BME280_temperature;BME280_humidity;BME280_pressure;Samples;Min_cycle;Max_cycle;Signal;HPM_P1;HPM_P2
2023/09/22 00:00:18;;;;;;;;;;;15.10;99.90;;;;;;5134497;27;19914;-44
2023/09/22 00:02:44;;;;;;;;;;;15.10;99.90;;;;;;5134550;27;19915;-43
2023/09/22 00:05:12;;;;;;;;;;;15.10;99.90;;;;;;5134310;27;20443;-45
2023/09/22 00:07:37;;;;;;;;;;;15.10;99.90;;;;;;5134441;27;19907;-44
2023/09/22 00:10:04;;;;;;;;;;;15.10;99.90;;;;;;5134396;27;20346;-43
2023/09/22 00:12:31;;;;;;;;;;;15.10;99.90;;;;;;5134356;27;19915;-44
2023/09/22 00:14:57;;;;;;;;;;;15.10;99.90;;;;;;5134242;27;20361;-45
2023/09/22 00:17:22;;;;;;;;;;;15.10;99.90;;;;;;5134228;27;20358;-43
2023/09/22 00:19:48;;;;;;;;;;;15.10;99.90;;;;;;5134179;27;19908;-44
2023/09/22 00:22:13;;;;;;;;;;;15.20;99.90;;;;;;5134107;27;19911;-45
2023/09/22 00:24:39;;;;;;;;;;;15.20;99.90;;;;;;5134220;27;19907;-44
2023/09/22 00:27:04;;;;;;;;;;;15.20;99.90;;;;;;5134207;27;19916;-43
2023/09/22 00:29:30;;;;;;;;;;;15.20;99.90;;;;;;5151249;27;19914;-44
2023/09/22 00:31:56;;;;;;;;;;;15.20;99.90;;;;;;5154834;27;19907;-45
2023/09/22 00:34:21;;;;;;;;;;;15.20;99.90;;;;;;5154086;27;19951;-44
2023/09/22 00:36:49;;;;;;;;;;;15.20;99.90;;;;;;5154337;27;20288;-42
2023/09/22 00:39:14;;;;;;;;;;;15.20;99.90;;;;;;5153193;27;19943;-43
2023/09/22 00:41:40;;;;;;;;;;;15.20;99.90;;;;;;5137388;27;19911;-43
2023/09/22 00:44:05;;;;;;;;;;;15.30;99.90;;;;;;5133779;27;19918;-44
2023/09/22 00:46:31;;;;;;;;;;;15.20;99.90;;;;;;5143791;27;19995;-43
2023/09/22 00:48:57;;;;;;;;;;;15.30;99.90;;;;;;5135981;27;19914;-43
2023/09/22 00:51:22;;;;;;;;;;;15.30;99.90;;;;;;5138082;27;19945;-46
2023/09/22 00:53:49;;;;;;;;;;;15.30;99.90;;;;;;5149863;27;20362;-43
2023/09/22 00:56:17;;;;;;;;;;;15.30;99.90;;;;;;5133627;28;20263;-43
2023/09/22 00:58:42;;;;;;;;;;;15.30;99.90;;;;;;5133665;28;20370;-43
2023/09/22 01:01:08;;;;;;;;;;;15.30;99.90;;;;;;5133695;28;19961;-45
2023/09/22 01:03:33;;;;;;;;;;;15.30;99.90;;;;;;5133774;28;19911;-44
2023/09/22 01:05:59;;;;;;;;;;;15.20;99.90;;;;;;5153162;27;19911;-45
2023/09/22 01:08:24;;;;;;;;;;;15.30;99.90;;;;;;5136573;27;19994;-45
2023/09/22 01:10:50;;;;;;;;;;;15.20;99.90;;;;;;5137871;27;20382;-44
2023/09/22 01:13:15;;;;;;;;;;;15.20;99.90;;;;;;5137844;27;20424;-46
2023/09/22 01:15:41;;;;;;;;;;;15.30;99.90;;;;;;5137769;27;19934;-43
2023/09/22 01:18:07;;;;;;;;;;;15.20;99.90;;;;;;5137703;27;20266;-44
2023/09/22 01:20:40;;;;;;;;;;;15.20;99.90;;;;;;5137722;27;19907;-43
2023/09/22 01:23:06;;;;;;;;;;;15.20;99.90;;;;;;5137736;27;19912;-44
2023/09/22 01:25:32;;;;;;;;;;;15.20;99.90;;;;;;5137590;27;20010;-45
2023/09/22 01:27:57;;;;;;;;;;;15.20;99.90;;;;;;5137705;27;20408;-42
2023/09/22 01:30:22;;;;;;;;;;;15.20;99.90;;;;;;5137517;27;19915;-43
2023/09/22 01:32:48;;;;;;;;;;;15.30;99.90;;;;;;5137334;27;20501;-43
2023/09/22 01:35:14;;;;;;;;;;;15.20;99.90;;;;;;5137300;27;20085;-43
2023/09/22 01:37:44;;;;;;;;;;;15.20;99.90;;;;;;5137521;27;19970;-44
2023/09/22 01:40:10;;;;;;;;;;;15.20;99.90;;;;;;5137243;27;19949;-44
2023/09/22 01:42:35;;;;;;;;;;;15.20;99.90;;;;;;5141084;27;20010;-44
2023/09/22 01:45:02;;;;;;;;;;;15.20;99.90;;;;;;5140193;27;20395;-44
2023/09/22 01:47:27;;;;;;;;;;;15.20;99.90;;;;;;5138510;27;19919;-43
2023/09/22 01:49:53;;;;;;;;;;;15.20;99.90;;;;;;5139772;27;20006;-44
2023/09/22 01:52:19;;;;;;;;;;;15.20;99.90;;;;;;5144634;27;19997;-43
2023/09/22 01:54:45;;;;;;;;;;;15.20;99.90;;;;;;5138246;27;19999;-43
2023/09/22 01:57:10;;;;;;;;;;;15.20;99.90;;;;;;5145461;27;19914;-45
2023/09/22 01:59:36;;;;;;;;;;;15.20;99.90;;;;;;5141827;27;19946;-45
2023/09/22 02:02:01;;;;;;;;;;;15.20;99.90;;;;;;5139068;27;19911;-44
2023/09/22 02:04:30;;;;;;;;;;;15.20;99.90;;;;;;5142234;27;19998;-43
2023/09/22 02:06:56;;;;;;;;;;;15.20;99.90;;;;;;5137160;27;19907;-43
2023/09/22 02:09:21;;;;;;;;;;;15.20;99.90;;;;;;5139499;27;19914;-44
2023/09/22 02:11:47;;;;;;;;;;;15.20;99.90;;;;;;5140068;27;20331;-43
2023/09/22 02:14:12;;;;;;;;;;;15.20;99.90;;;;;;5140404;27;20362;-44
2023/09/22 02:16:40;;;;;;;;;;;15.10;99.90;;;;;;5139359;27;19923;-44
2023/09/22 02:19:05;;;;;;;;;;;15.10;99.90;;;;;;5139909;27;19918;-43
2023/09/22 02:21:31;;;;;;;;;;;15.10;99.90;;;;;;5142169;27;19907;-43
2023/09/22 02:23:56;;;;;;;;;;;15.10;99.90;;;;;;5139349;27;20278;-44
2023/09/22 02:26:22;;;;;;;;;;;15.00;99.90;;;;;;5139438;27;20413;-43
2023/09/22 02:28:51;;;;;;;;;;;15.00;99.90;;;;;;5139916;27;19922;-44
2023/09/22 02:31:17;;;;;;;;;;;14.90;99.90;;;;;;5138224;27;19998;-43
2023/09/22 02:33:42;;;;;;;;;;;14.90;99.90;;;;;;5140336;27;20015;-44
2023/09/22 02:36:10;;;;;;;;;;;14.90;99.90;;;;;;5112380;27;20133;-43
2023/09/22 02:38:35;;;;;;;;;;;14.90;99.90;;;;;;5138961;27;19990;-44
2023/09/22 02:41:00;;;;;;;;;;;14.90;99.90;;;;;;5139789;27;20349;-44
2023/09/22 02:43:26;;;;;;;;;;;14.90;99.90;;;;;;5141612;27;19908;-44
2023/09/22 02:45:51;;;;;;;;;;;14.90;99.90;;;;;;5139659;27;19919;-43
2023/09/22 02:48:17;;;;;;;;;;;14.90;99.90;;;;;;5139924;27;19907;-44
2023/09/22 02:50:42;;;;;;;;;;;14.90;99.90;;;;;;5134125;27;19919;-43
2023/09/22 02:53:08;;;;;;;;;;;14.90;99.90;;;;;;5138159;27;19926;-43
2023/09/22 02:55:40;;;;;;;;;;;14.90;99.90;;;;;;5138649;27;19916;-43
2023/09/22 02:58:06;;;;;;;;;;;14.90;99.90;;;;;;5140898;27;20007;-44
2023/09/22 03:00:31;;;;;;;;;;;14.90;99.90;;;;;;5135478;27;19951;-44
2023/09/22 03:02:57;;;;;;;;;;;14.90;99.90;;;;;;5139760;27;20373;-43
2023/09/22 03:05:22;;;;;;;;;;;14.90;99.90;;;;;;5137112;27;20406;-45
2023/09/22 03:07:48;;;;;;;;;;;14.90;99.90;;;;;;5134862;27;19920;-44
2023/09/22 03:10:14;;;;;;;;;;;14.80;99.90;;;;;;5132467;27;20354;-43
2023/09/22 03:12:39;;;;;;;;;;;14.80;99.90;;;;;;5147261;27;19911;-44
2023/09/22 03:15:06;;;;;;;;;;;14.80;99.90;;;;;;5143210;27;19926;-44
2023/09/22 03:17:31;;;;;;;;;;;14.80;99.90;;;;;;5156151;27;20043;-43
2023/09/22 03:19:58;;;;;;;;;;;14.80;99.90;;;;;;5144770;27;19964;-45
2023/09/22 03:22:24;;;;;;;;;;;14.80;99.90;;;;;;5135072;27;19908;-44
2023/09/22 03:24:49;;;;;;;;;;;14.80;99.90;;;;;;5135413;27;19908;-43
2023/09/22 03:27:15;;;;;;;;;;;14.70;99.90;;;;;;5135150;27;20297;-44
2023/09/22 03:29:40;;;;;;;;;;;14.70;99.90;;;;;;5134917;27;19947;-43
2023/09/22 03:32:06;;;;;;;;;;;14.80;99.90;;;;;;5145798;27;19915;-44
2023/09/22 03:34:32;;;;;;;;;;;14.70;99.90;;;;;;5155877;27;20038;-44
2023/09/22 03:36:59;;;;;;;;;;;14.70;99.90;;;;;;5155818;27;19923;-43
2023/09/22 03:39:26;;;;;;;;;;;14.70;99.90;;;;;;5155698;27;19939;-43
2023/09/22 03:41:54;;;;;;;;;;;14.70;99.90;;;;;;5155694;27;19911;-43
2023/09/22 03:44:20;;;;;;;;;;;14.70;99.90;;;;;;5155665;27;19914;-45
2023/09/22 03:46:46;;;;;;;;;;;14.70;99.90;;;;;;5155728;27;19908;-43
2023/09/22 03:49:11;;;;;;;;;;;14.60;99.90;;;;;;5155594;27;19914;-43
2023/09/22 03:51:36;;;;;;;;;;;14.60;99.90;;;;;;5155483;27;19986;-44
2023/09/22 03:54:02;;;;;;;;;;;14.60;99.90;;;;;;5155507;27;20273;-43
2023/09/22 03:56:28;;;;;;;;;;;14.60;99.90;;;;;;5155378;27;19919;-44
2023/09/22 03:58:54;;;;;;;;;;;14.50;99.90;;;;;;5134978;27;20146;-43
2023/09/22 04:01:19;;;;;;;;;;;14.50;99.90;;;;;;5134531;27;19911;-44
2023/09/22 04:03:45;;;;;;;;;;;14.50;99.90;;;;;;5134716;27;20421;-44
2023/09/22 04:06:10;;;;;;;;;;;14.50;99.90;;;;;;5134532;27;19915;-45
2023/09/22 04:08:36;;;;;;;;;;;14.50;99.90;;;;;;5145320;27;20048;-44
2023/09/22 04:11:02;;;;;;;;;;;14.50;99.90;;;;;;5155311;27;20407;-43
2023/09/22 04:13:28;;;;;;;;;;;14.50;99.90;;;;;;5155069;27;19911;-43
2023/09/22 04:15:58;;;;;;;;;;;14.50;99.90;;;;;;5155028;27;20169;-43
2023/09/22 04:18:29;;;;;;;;;;;14.50;99.90;;;;;;5154985;27;19959;-43
2023/09/22 04:20:57;;;;;;;;;;;14.50;99.90;;;;;;5155196;27;19908;-43
2023/09/22 04:23:25;;;;;;;;;;;14.50;99.90;;;;;;5154935;27;19907;-45
2023/09/22 04:25:53;;;;;;;;;;;14.40;99.90;;;;;;5155054;27;19907;-43
2023/09/22 04:28:23;;;;;;;;;;;14.40;99.90;;;;;;5154866;27;19907;-43
2023/09/22 04:30:48;;;;;;;;;;;14.40;99.90;;;;;;5154917;27;19907;-43
2023/09/22 04:33:14;;;;;;;;;;;14.40;99.90;;;;;;5154470;27;19930;-43
2023/09/22 04:35:40;;;;;;;;;;;14.30;99.90;;;;;;5136853;27;19920;-44
2023/09/22 04:38:05;;;;;;;;;;;14.40;99.90;;;;;;5136588;27;19919;-43
2023/09/22 04:40:36;;;;;;;;;;;14.30;99.90;;;;;;5139280;27;19911;-44
2023/09/22 04:43:03;;;;;;;;;;;14.30;99.90;;;;;;5141690;27;19918;-43
2023/09/22 04:45:29;;;;;;;;;;;14.20;99.90;;;;;;5142544;27;20329;-43
2023/09/22 04:47:56;;;;;;;;;;;14.20;99.90;;;;;;5142585;27;19907;-44
2023/09/22 04:50:21;;;;;;;;;;;14.10;99.90;;;;;;5146104;27;19911;-44
2023/09/22 04:52:49;;;;;;;;;;;14.10;99.90;;;;;;5146171;27;19911;-43
2023/09/22 04:55:18;;;;;;;;;;;14.10;99.90;;;;;;5133649;27;19926;-44
2023/09/22 04:57:44;;;;;;;;;;;14.10;99.90;;;;;;5140662;27;20285;-44
2023/09/22 05:00:15;;;;;;;;;;;14.10;99.90;;;;;;5149139;27;19911;-44
2023/09/22 05:02:41;;;;;;;;;;;14.10;99.90;;;;;;5146645;27;19908;-44
2023/09/22 05:05:07;;;;;;;;;;;14.10;99.90;;;;;;5146061;27;19918;-43
2023/09/22 05:07:33;;;;;;;;;;;14.00;99.90;;;;;;5137101;27;19915;-43
2023/09/22 05:09:59;;;;;;;;;;;14.00;99.90;;;;;;5141918;27;20000;-43
2023/09/22 05:12:25;;;;;;;;;;;13.90;99.90;;;;;;5145623;27;19907;-43
2023/09/22 05:14:50;;;;;;;;;;;13.90;99.90;;;;;;5146147;27;19911;-44
2023/09/22 05:17:15;;;;;;;;;;;13.90;99.90;;;;;;5144363;27;19922;-44
2023/09/22 05:19:42;;;;;;;;;;;13.80;99.90;;;;;;5143644;27;20269;-45
2023/09/22 05:22:08;;;;;;;;;;;13.80;99.90;;;;;;5131231;27;19914;-44
2023/09/22 05:24:33;;;;;;;;;;;13.80;99.90;;;;;;5139162;27;19911;-44
2023/09/22 05:26:59;;;;;;;;;;;13.80;99.90;;;;;;5144167;27;20376;-43
2023/09/22 05:29:24;;;;;;;;;;;13.80;99.90;;;;;;5145998;27;19911;-44
2023/09/22 05:31:50;;;;;;;;;;;13.80;99.90;;;;;;5143304;27;19907;-44
2023/09/22 05:34:15;;;;;;;;;;;13.70;99.90;;;;;;5153773;27;19927;-45
2023/09/22 05:36:42;;;;;;;;;;;13.70;99.90;;;;;;5136512;27;19916;-43
2023/09/22 05:39:09;;;;;;;;;;;13.70;99.90;;;;;;5133902;28;19907;-45
2023/09/22 05:41:34;;;;;;;;;;;13.70;99.90;;;;;;5133423;28;19950;-44
2023/09/22 05:44:00;;;;;;;;;;;13.70;99.90;;;;;;5134082;28;20366;-45
2023/09/22 05:46:26;;;;;;;;;;;13.70;99.90;;;;;;5134040;28;19918;-44
2023/09/22 05:48:52;;;;;;;;;;;13.70;99.90;;;;;;5133734;28;19982;-44
2023/09/22 05:51:18;;;;;;;;;;;13.70;99.90;;;;;;5133539;27;19964;-43
2023/09/22 05:53:44;;;;;;;;;;;13.70;99.90;;;;;;5150498;27;19917;-44
2023/09/22 05:56:10;;;;;;;;;;;13.70;99.90;;;;;;5154763;27;19920;-44
2023/09/22 05:58:39;;;;;;;;;;;13.80;99.90;;;;;;5135843;27;19918;-44
2023/09/22 06:01:11;;;;;;;;;;;13.80;99.90;;;;;;5137005;27;19908;-43
2023/09/22 06:03:38;;;;;;;;;;;13.80;99.90;;;;;;5131899;27;20269;-44
2023/09/22 06:06:04;;;;;;;;;;;13.80;99.90;;;;;;5157701;27;19911;-44
2023/09/22 06:08:30;;;;;;;;;;;13.80;99.90;;;;;;5157424;27;20346;-45
2023/09/22 06:10:56;;;;;;;;;;;13.80;99.90;;;;;;5157544;27;20386;-43
2023/09/22 06:13:23;;;;;;;;;;;13.80;99.90;;;;;;5135216;27;20397;-43
2023/09/22 06:15:48;;;;;;;;;;;13.80;99.90;;;;;;5146470;27;20377;-45
2023/09/22 06:18:16;;;;;;;;;;;13.80;99.90;;;;;;5140402;27;19959;-44
2023/09/22 06:20:41;;;;;;;;;;;13.80;99.90;;;;;;5142280;27;19959;-44
2023/09/22 06:23:08;;;;;;;;;;;13.80;99.90;;;;;;5144314;27;19911;-44
2023/09/22 06:25:34;;;;;;;;;;;13.80;99.90;;;;;;5136524;27;19911;-44
2023/09/22 06:28:00;;;;;;;;;;;13.90;99.90;;;;;;5136612;27;19908;-44
2023/09/22 06:30:25;;;;;;;;;;;13.90;99.90;;;;;;5134023;27;19915;-46
2023/09/22 06:32:51;;;;;;;;;;;13.90;99.90;;;;;;5123057;27;19997;-44
2023/09/22 06:35:16;;;;;;;;;;;14.00;99.90;;;;;;5133653;27;19927;-47
2023/09/22 06:37:42;;;;;;;;;;;13.90;99.90;;;;;;5130001;27;20297;-44
2023/09/22 06:40:11;;;;;;;;;;;14.00;99.90;;;;;;5130252;27;20425;-45
2023/09/22 06:42:41;;;;;;;;;;;14.00;99.90;;;;;;5156907;27;19964;-44
2023/09/22 06:45:09;;;;;;;;;;;14.00;99.90;;;;;;5143162;27;19922;-43
2023/09/22 06:47:35;;;;;;;;;;;14.00;99.90;;;;;;5145198;27;19912;-45
2023/09/22 06:50:05;;;;;;;;;;;14.00;99.90;;;;;;5154932;27;19915;-44
2023/09/22 06:52:30;;;;;;;;;;;14.00;99.90;;;;;;5142292;27;19911;-44
2023/09/22 06:54:56;;;;;;;;;;;14.00;99.90;;;;;;5146391;27;19916;-44
2023/09/22 06:57:23;;;;;;;;;;;14.10;99.90;;;;;;5145205;27;19907;-44
2023/09/22 06:59:52;;;;;;;;;;;14.10;99.90;;;;;;5147856;27;19918;-44
2023/09/22 07:02:18;;;;;;;;;;;14.10;99.90;;;;;;5135516;27;19915;-44
2023/09/22 07:04:44;;;;;;;;;;;14.10;99.90;;;;;;5127058;27;19912;-44
2023/09/22 07:07:11;;;;;;;;;;;14.10;99.90;;;;;;5122481;27;19935;-44
2023/09/22 07:09:37;;;;;;;;;;;14.20;99.90;;;;;;5129683;27;19954;-47
2023/09/22 07:12:03;;;;;;;;;;;14.20;99.90;;;;;;5119068;27;19919;-45
2023/09/22 07:14:29;;;;;;;;;;;14.20;99.90;;;;;;5139218;27;20331;-45
2023/09/22 07:16:54;;;;;;;;;;;14.30;99.90;;;;;;5125370;27;19916;-45
2023/09/22 07:19:21;;;;;;;;;;;14.30;99.90;;;;;;5115983;27;19908;-44
2023/09/22 07:21:48;;;;;;;;;;;14.30;99.90;;;;;;5154947;27;19922;-44
2023/09/22 07:24:15;;;;;;;;;;;14.30;99.90;;;;;;5137343;27;19935;-43
2023/09/22 07:26:40;;;;;;;;;;;14.40;99.90;;;;;;5133746;27;19919;-43
2023/09/22 07:29:06;;;;;;;;;;;14.40;99.90;;;;;;5141790;27;20161;-44
2023/09/22 07:31:32;;;;;;;;;;;14.50;99.90;;;;;;5155858;27;19907;-43
2023/09/22 07:33:58;;;;;;;;;;;14.40;99.90;;;;;;5150625;27;19996;-44
2023/09/22 07:36:23;;;;;;;;;;;14.50;99.90;;;;;;5133802;27;20015;-43
2023/09/22 07:38:49;;;;;;;;;;;14.50;99.90;;;;;;5141322;27;19939;-45
2023/09/22 07:41:14;;;;;;;;;;;14.50;99.90;;;;;;5138164;27;20336;-46
2023/09/22 07:43:40;;;;;;;;;;;14.50;99.90;;;;;;5139288;27;20038;-45
2023/09/22 07:46:06;;;;;;;;;;;14.50;99.90;;;;;;5134505;27;20350;-44
2023/09/22 07:48:33;;;;;;;;;;;14.50;99.90;;;;;;5134636;27;19915;-44
2023/09/22 07:51:00;;;;;;;;;;;14.50;99.90;;;;;;5131292;27;20336;-44
2023/09/22 07:53:25;;;;;;;;;;;14.60;99.90;;;;;;5121542;27;19912;-44
2023/09/22 07:55:55;;;;;;;;;;;14.60;99.90;;;;;;5118088;27;19919;-43
2023/09/22 07:58:24;;;;;;;;;;;14.70;99.90;;;;;;5128531;27;19919;-43
2023/09/22 08:00:50;;;;;;;;;;;14.80;99.90;;;;;;5128661;27;19911;-44
2023/09/22 08:03:18;;;;;;;;;;;14.80;99.90;;;;;;5114128;28;20399;-43
2023/09/22 08:05:44;;;;;;;;;;;14.80;99.90;;;;;;5115017;27;19911;-43
2023/09/22 08:08:10;;;;;;;;;;;14.80;99.90;;;;;;5113740;28;19907;-44
2023/09/22 08:10:38;;;;;;;;;;;14.80;99.90;;;;;;5128533;27;20362;-44
2023/09/22 08:13:07;;;;;;;;;;;14.80;99.90;;;;;;5129556;27;20369;-43
2023/09/22 08:15:34;;;;;;;;;;;14.80;99.90;;;;;;5140971;27;19919;-44
2023/09/22 08:17:59;;;;;;;;;;;14.80;99.90;;;;;;5117049;27;19928;-44
2023/09/22 08:20:25;;;;;;;;;;;14.90;99.90;;;;;;5113697;28;20020;-44
2023/09/22 08:22:51;;;;;;;;;;;15.00;99.90;;;;;;5123431;27;19908;-43
2023/09/22 08:25:16;;;;;;;;;;;15.10;99.90;;;;;;5113389;28;20002;-43
2023/09/22 08:27:42;;;;;;;;;;;15.20;99.90;;;;;;5132668;27;19915;-43
2023/09/22 08:30:13;;;;;;;;;;;15.20;99.90;;;;;;5138878;27;19911;-44
2023/09/22 08:32:43;;;;;;;;;;;15.30;99.90;;;;;;5133813;27;20369;-44
2023/09/22 08:35:09;;;;;;;;;;;15.30;99.90;;;;;;5126011;27;20281;-46
2023/09/22 08:37:36;;;;;;;;;;;15.40;99.90;;;;;;5131408;27;19914;-44
2023/09/22 08:40:07;;;;;;;;;;;15.40;99.90;;;;;;5134347;27;19956;-43
2023/09/22 08:42:33;;;;;;;;;;;15.50;99.90;;;;;;5134520;27;19907;-45
2023/09/22 08:44:59;;;;;;;;;;;15.50;99.90;;;;;;5134075;27;19930;-45
2023/09/22 08:47:25;;;;;;;;;;;15.50;99.90;;;;;;5133909;27;19962;-45
2023/09/22 08:49:50;;;;;;;;;;;15.50;99.90;;;;;;5123489;27;19945;-44
2023/09/22 08:52:16;;;;;;;;;;;15.60;99.90;;;;;;5134048;27;20358;-43
2023/09/22 08:54:41;;;;;;;;;;;15.70;99.90;;;;;;5130477;27;19907;-44
2023/09/22 08:57:07;;;;;;;;;;;15.80;99.90;;;;;;5129236;27;20419;-43
2023/09/22 08:59:32;;;;;;;;;;;15.90;99.90;;;;;;5128301;27;20487;-44
2023/09/22 09:02:00;;;;;;;;;;;15.90;99.90;;;;;;5124657;28;19958;-44
2023/09/22 09:04:33;;;;;;;;;;;15.90;99.90;;;;;;5130697;28;20009;-44
2023/09/22 09:06:59;;;;;;;;;;;15.90;99.90;;;;;;5118645;28;19911;-43
2023/09/22 09:09:24;;;;;;;;;;;16.00;99.90;;;;;;5125771;27;19914;-44
2023/09/22 09:11:59;;;;;;;;;;;16.00;99.90;;;;;;5119004;28;20437;-44
2023/09/22 09:14:28;;;;;;;;;;;16.00;99.90;;;;;;5125346;28;19908;-44
2023/09/22 09:16:56;;;;;;;;;;;15.90;99.90;;;;;;5114634;28;19919;-46
2023/09/22 09:19:21;;;;;;;;;;;15.80;99.90;;;;;;5126769;28;19918;-46
2023/09/22 09:22:08;;;;;;;;;;;15.80;99.90;;;;;;5126191;28;19907;-45
2023/09/22 09:24:34;;;;;;;;;;;15.90;99.90;;;;;;5115025;28;19912;-44
2023/09/22 09:27:00;;;;;;;;;;;16.00;99.90;;;;;;5121126;28;19911;-44
2023/09/22 09:29:26;;;;;;;;;;;16.20;99.90;;;;;;5123042;27;19914;-44
2023/09/22 09:31:51;;;;;;;;;;;16.30;99.90;;;;;;5130784;27;19959;-44
2023/09/22 09:34:17;;;;;;;;;;;16.40;99.90;;;;;;5105601;27;20005;-43
2023/09/22 09:36:42;;;;;;;;;;;16.40;99.90;;;;;;5109724;28;20028;-44
2023/09/22 09:39:10;;;;;;;;;;;16.50;99.90;;;;;;5104556;28;19912;-44
2023/09/22 09:41:37;;;;;;;;;;;16.60;99.90;;;;;;5107971;28;19912;-44
2023/09/22 09:44:03;;;;;;;;;;;16.70;99.90;;;;;;5109166;28;19926;-46
2023/09/22 09:46:29;;;;;;;;;;;16.80;99.90;;;;;;5109817;28;19915;-44
2023/09/22 09:48:55;;;;;;;;;;;16.80;99.90;;;;;;5116384;28;19954;-44
2023/09/22 09:51:23;;;;;;;;;;;16.90;99.90;;;;;;5115006;28;19916;-45
2023/09/22 09:53:51;;;;;;;;;;;16.90;99.90;;;;;;5104658;28;19944;-45
2023/09/22 09:56:17;;;;;;;;;;;16.80;99.90;;;;;;5107258;28;19924;-44
2023/09/22 09:58:45;;;;;;;;;;;16.90;99.90;;;;;;5116225;28;19908;-43
2023/09/22 10:01:11;;;;;;;;;;;17.00;99.90;;;;;;5111862;28;19954;-47
2023/09/22 10:03:39;;;;;;;;;;;17.10;99.90;;;;;;5115642;28;19909;-45
2023/09/22 10:06:06;;;;;;;;;;;17.20;99.90;;;;;;5116845;28;20022;-44
2023/09/22 10:08:32;;;;;;;;;;;17.30;99.90;;;;;;5116903;28;19908;-44
2023/09/22 10:11:03;;;;;;;;;;;17.40;99.90;;;;;;5116668;28;20387;-43
2023/09/22 10:13:29;;;;;;;;;;;17.50;99.90;;;;;;5116784;28;19919;-43
2023/09/22 10:15:57;;;;;;;;;;;17.60;99.90;;;;;;5116808;28;19915;-43
2023/09/22 10:18:44;;;;;;;;;;;17.60;99.90;;;;;;5116026;28;20354;-43
2023/09/22 10:21:37;;;;;;;;;;;17.70;99.90;;;;;;5112029;28;20002;-44
2023/09/22 10:24:20;;;;;;;;;;;17.90;99.90;;;;;;5137362;27;20384;-44
2023/09/22 10:27:06;;;;;;;;;;;17.90;99.90;;;;;;5126725;27;19914;-45
2023/09/22 10:29:35;;;;;;;;;;;18.00;99.90;;;;;;5103441;28;19958;-47
2023/09/22 10:32:15;;;;;;;;;;;18.10;99.90;;;;;;5113616;28;19912;-44
2023/09/22 10:35:10;;;;;;;;;;;18.20;99.90;;;;;;5134118;27;19976;-45
2023/09/22 10:37:37;;;;;;;;;;;18.30;99.90;;;;;;5121527;27;19920;-44
2023/09/22 10:40:11;;;;;;;;;;;18.10;99.90;;;;;;5125471;27;19919;-44
2023/09/22 10:42:41;;;;;;;;;;;17.90;99.90;;;;;;5125953;27;20764;-44
2023/09/22 10:45:07;;;;;;;;;;;17.60;99.90;;;;;;5131700;27;19922;-44
2023/09/22 10:47:39;;;;;;;;;;;17.40;99.90;;;;;;5115560;28;20270;-44
2023/09/22 10:50:15;;;;;;;;;;;17.10;99.90;;;;;;5116977;27;19908;-44
2023/09/22 10:52:48;;;;;;;;;;;17.00;99.90;;;;;;5157519;27;19907;-44
2023/09/22 10:55:20;;;;;;;;;;;16.90;99.90;;;;;;5156866;27;19907;-44
2023/09/22 10:57:46;;;;;;;;;;;16.90;99.90;;;;;;5156840;27;19913;-43
2023/09/22 11:00:13;;;;;;;;;;;17.00;99.90;;;;;;5156172;27;19915;-44
2023/09/22 11:02:39;;;;;;;;;;;17.00;99.90;;;;;;5156565;27;19938;-43
2023/09/22 11:05:05;;;;;;;;;;;17.20;99.90;;;;;;5156670;27;19966;-43
2023/09/22 11:07:34;;;;;;;;;;;17.30;99.90;;;;;;5156192;27;19918;-43
2023/09/22 11:10:00;;;;;;;;;;;17.40;99.90;;;;;;5156428;27;20370;-45
2023/09/22 11:12:29;;;;;;;;;;;17.50;99.90;;;;;;5156298;27;19907;-43
2023/09/22 11:14:55;;;;;;;;;;;17.50;99.90;;;;;;5156440;27;19959;-44
2023/09/22 11:17:21;;;;;;;;;;;17.60;99.90;;;;;;5156155;27;20025;-43
2023/09/22 11:19:53;;;;;;;;;;;17.80;99.90;;;;;;5156229;27;19911;-44
2023/09/22 11:22:19;;;;;;;;;;;18.00;99.90;;;;;;5155588;27;19907;-46
2023/09/22 11:24:45;;;;;;;;;;;17.90;99.90;;;;;;5156195;27;19911;-44
2023/09/22 11:27:11;;;;;;;;;;;17.90;99.90;;;;;;5156043;27;19947;-43
2023/09/22 11:29:38;;;;;;;;;;;17.70;99.90;;;;;;5155714;27;20003;-44
2023/09/22 11:32:06;;;;;;;;;;;17.70;99.90;;;;;;5155963;27;19915;-44
2023/09/22 11:34:32;;;;;;;;;;;17.60;99.90;;;;;;5155938;27;19918;-43
2023/09/22 11:36:57;;;;;;;;;;;17.50;99.90;;;;;;5155765;27;19919;-43
2023/09/22 11:39:30;;;;;;;;;;;17.40;99.90;;;;;;5155797;27;19967;-43
2023/09/22 11:41:56;;;;;;;;;;;17.30;99.90;;;;;;5155892;27;19997;-44
2023/09/22 11:44:22;;;;;;;;;;;17.20;99.90;;;;;;5155736;27;19961;-43
2023/09/22 11:46:48;;;;;;;;;;;17.20;99.90;;;;;;5156073;27;20445;-44
2023/09/22 11:49:13;;;;;;;;;;;17.20;99.90;;;;;;5155602;27;20382;-46
2023/09/22 11:51:41;;;;;;;;;;;17.20;99.90;;;;;;5141858;27;19931;-44
2023/09/22 11:54:07;;;;;;;;;;;17.20;99.90;;;;;;5134648;27;19919;-44
2023/09/22 11:56:33;;;;;;;;;;;17.20;99.90;;;;;;5134550;27;19961;-42
2023/09/22 11:59:08;;;;;;;;;;;17.10;99.90;;;;;;5134781;27;20324;-42
2023/09/22 12:01:33;;;;;;;;;;;17.10;99.90;;;;;;5134685;27;20002;-44
2023/09/22 12:03:59;;;;;;;;;;;17.10;99.90;;;;;;5134665;27;19942;-44
2023/09/22 12:06:24;;;;;;;;;;;17.20;99.90;;;;;;5134920;27;19914;-43
2023/09/22 12:08:50;;;;;;;;;;;17.40;99.90;;;;;;5134632;27;19914;-45
2023/09/22 12:11:16;;;;;;;;;;;17.50;99.90;;;;;;5134249;27;20289;-44
2023/09/22 12:13:42;;;;;;;;;;;17.50;99.90;;;;;;5134616;27;19907;-43
2023/09/22 12:16:08;;;;;;;;;;;17.50;99.90;;;;;;5134515;27;19923;-43
2023/09/22 12:18:34;;;;;;;;;;;17.50;99.90;;;;;;5134241;27;19908;-44
2023/09/22 12:20:59;;;;;;;;;;;17.50;99.90;;;;;;5134052;27;19911;-43
2023/09/22 12:23:25;;;;;;;;;;;17.50;99.90;;;;;;5130483;27;19988;-44
2023/09/22 12:25:52;;;;;;;;;;;17.50;99.90;;;;;;5132218;27;19911;-44
2023/09/22 12:28:18;;;;;;;;;;;17.50;99.90;;;;;;5130465;27;19998;-45
2023/09/22 12:30:44;;;;;;;;;;;17.50;99.90;;;;;;5127129;27;19911;-44
2023/09/22 12:33:09;;;;;;;;;;;17.60;99.90;;;;;;5121511;27;19926;-44
2023/09/22 12:35:35;;;;;;;;;;;17.50;99.90;;;;;;5114851;27;19920;-44
2023/09/22 12:38:00;;;;;;;;;;;17.40;99.90;;;;;;5114331;27;20004;-43
2023/09/22 12:40:26;;;;;;;;;;;17.30;99.90;;;;;;5133074;27;19975;-46
2023/09/22 12:42:52;;;;;;;;;;;17.20;99.90;;;;;;5132871;27;20274;-44
2023/09/22 12:45:19;;;;;;;;;;;17.20;99.90;;;;;;5127869;27;19957;-43
2023/09/22 12:47:45;;;;;;;;;;;17.10;99.90;;;;;;5120076;27;19915;-45
2023/09/22 12:50:10;;;;;;;;;;;17.10;99.90;;;;;;5128627;27;20286;-44
2023/09/22 12:52:37;;;;;;;;;;;17.10;99.90;;;;;;5154444;27;19912;-43
2023/09/22 12:55:03;;;;;;;;;;;17.10;99.90;;;;;;5126913;27;19912;-45
2023/09/22 12:57:29;;;;;;;;;;;17.10;99.90;;;;;;5113576;28;19911;-44
2023/09/22 12:59:57;;;;;;;;;;;17.00;99.90;;;;;;5142867;27;19918;-44
2023/09/22 13:02:22;;;;;;;;;;;17.00;99.90;;;;;;5132276;27;19922;-46
2023/09/22 13:04:48;;;;;;;;;;;16.90;99.90;;;;;;5131934;27;19911;-43
2023/09/22 13:07:17;;;;;;;;;;;16.90;99.90;;;;;;5120253;27;19968;-44
2023/09/22 13:09:43;;;;;;;;;;;16.80;99.90;;;;;;5123541;28;20351;-44
2023/09/22 13:12:09;;;;;;;;;;;16.80;99.90;;;;;;5120933;27;19912;-45
2023/09/22 13:14:35;;;;;;;;;;;16.80;99.90;;;;;;5126226;27;19918;-44
2023/09/22 13:17:01;;;;;;;;;;;16.70;99.90;;;;;;5124562;28;19919;-43
2023/09/22 13:19:28;;;;;;;;;;;16.70;99.90;;;;;;5133483;27;19922;-46
2023/09/22 13:21:54;;;;;;;;;;;16.80;99.90;;;;;;5125548;27;19918;-45
2023/09/22 13:24:20;;;;;;;;;;;16.80;99.90;;;;;;5127555;27;20406;-45
2023/09/22 13:26:45;;;;;;;;;;;16.90;99.90;;;;;;5125215;27;20010;-45
2023/09/22 13:29:11;;;;;;;;;;;17.00;99.90;;;;;;5143162;27;19911;-44
2023/09/22 13:31:36;;;;;;;;;;;17.20;99.90;;;;;;5144151;27;19998;-44
2023/09/22 13:34:02;;;;;;;;;;;17.40;99.90;;;;;;5140010;27;19925;-45
2023/09/22 13:36:27;;;;;;;;;;;17.60;99.90;;;;;;5135945;27;19983;-43
2023/09/22 13:38:53;;;;;;;;;;;17.90;99.90;;;;;;5128261;27;20010;-43
2023/09/22 13:41:19;;;;;;;;;;;18.40;99.90;;;;;;5141338;27;19911;-44
2023/09/22 13:43:45;;;;;;;;;;;18.80;99.90;;;;;;5151750;27;19911;-44
2023/09/22 13:46:12;;;;;;;;;;;18.80;99.90;;;;;;5141684;27;19918;-44
2023/09/22 13:48:38;;;;;;;;;;;18.70;99.90;;;;;;5135754;27;19923;-43
2023/09/22 13:51:04;;;;;;;;;;;18.70;99.90;;;;;;5142110;27;19918;-43
2023/09/22 13:53:30;;;;;;;;;;;19.00;99.90;;;;;;5143470;27;20013;-46
2023/09/22 13:55:56;;;;;;;;;;;19.10;99.90;;;;;;5134450;27;19925;-47
2023/09/22 13:58:21;;;;;;;;;;;18.90;99.90;;;;;;5145128;27;19919;-45
2023/09/22 14:00:47;;;;;;;;;;;18.70;99.90;;;;;;5140486;27;19916;-44
2023/09/22 14:03:13;;;;;;;;;;;18.50;99.90;;;;;;5136993;27;19919;-44
2023/09/22 14:05:39;;;;;;;;;;;18.40;99.90;;;;;;5145575;27;19918;-44
2023/09/22 14:08:05;;;;;;;;;;;18.30;99.90;;;;;;5144673;27;19915;-44
2023/09/22 14:10:30;;;;;;;;;;;18.30;99.90;;;;;;5142379;27;19916;-44
2023/09/22 14:12:56;;;;;;;;;;;18.30;99.90;;;;;;5135970;27;19994;-44